createdAt,value
2023-03-07T00:00:06.193Z,23.67
2023-03-07T00:02:34.377Z,23.00
2023-03-07T00:05:02.918Z,22.30
2023-03-07T00:07:32.138Z,23.40
2023-03-07T00:10:00.460Z,22.13
2023-03-07T00:12:30.048Z,24.95
2023-03-07T00:14:58.200Z,22.50
2023-03-07T00:17:26.523Z,17.98
2023-03-07T00:19:54.920Z,20.17
2023-03-07T00:22:23.174Z,16.77
2023-03-07T00:24:51.490Z,19.13
2023-03-07T00:27:19.797Z,20.45
2023-03-07T00:29:51.169Z,18.33
2023-03-07T00:32:19.680Z,17.83
2023-03-07T00:34:47.976Z,17.83
2023-03-07T00:37:16.343Z,17.47
2023-03-07T00:39:44.831Z,17.60
2023-03-07T00:42:13.092Z,19.52
2023-03-07T00:44:41.459Z,17.02
2023-03-07T00:47:11.062Z,16.42
2023-03-07T00:49:39.996Z,15.40
2023-03-07T00:52:08.616Z,17.00
2023-03-07T00:54:36.849Z,13.82
2023-03-07T00:57:05.622Z,17.13
2023-03-07T00:59:34.573Z,17.05
2023-03-07T01:02:03.303Z,17.27
2023-03-07T01:04:33.080Z,16.67
2023-03-07T01:07:01.373Z,16.03
2023-03-07T01:09:29.908Z,14.15
2023-03-07T01:11:58.367Z,17.20
2023-03-07T01:14:27.249Z,14.25
2023-03-07T01:16:55.677Z,12.07
2023-03-07T01:19:24.379Z,13.07
2023-03-07T01:21:56.653Z,10.70
2023-03-07T01:24:25.292Z,10.40
2023-03-07T01:26:54.035Z,9.93
2023-03-07T01:29:24.683Z,13.20
2023-03-07T01:31:53.435Z,14.02
2023-03-07T01:34:22.050Z,12.18
2023-03-07T01:36:52.801Z,12.75
2023-03-07T01:39:23.170Z,11.27
2023-03-07T01:42:01.547Z,12.05
2023-03-07T01:44:31.177Z,14.27
2023-03-07T01:47:00.795Z,10.15
2023-03-07T01:49:55.882Z,12.77
2023-03-07T01:52:28.044Z,10.70
2023-03-07T01:55:06.103Z,11.48
2023-03-07T01:57:38.155Z,10.10
2023-03-07T02:00:11.327Z,12.23
2023-03-07T02:02:45.004Z,12.48
2023-03-07T02:05:21.584Z,12.77
2023-03-07T02:07:52.811Z,11.13
2023-03-07T02:10:27.098Z,12.07
2023-03-07T02:12:55.873Z,12.40
2023-03-07T02:15:24.882Z,10.77
2023-03-07T02:17:53.665Z,13.15
2023-03-07T02:20:32.667Z,13.05
2023-03-07T02:23:01.198Z,14.27
2023-03-07T02:25:35.893Z,11.65
2023-03-07T02:28:08.375Z,14.95
2023-03-07T02:30:38.647Z,12.68
2023-03-07T02:33:07.054Z,13.15
2023-03-07T02:35:35.375Z,13.02
2023-03-07T02:38:06.475Z,12.43
2023-03-07T02:40:34.893Z,12.52
2023-03-07T02:43:09.591Z,12.30
2023-03-07T02:45:40.319Z,13.73
2023-03-07T02:48:08.796Z,12.07
2023-03-07T02:50:37.638Z,14.63
2023-03-07T02:53:06.232Z,12.30
2023-03-07T02:55:34.790Z,11.80
2023-03-07T02:58:07.029Z,12.63
2023-03-07T03:00:35.593Z,9.82
2023-03-07T03:03:04.003Z,11.50
2023-03-07T03:05:32.278Z,10.30
2023-03-07T03:08:00.664Z,10.65
2023-03-07T03:10:31.456Z,7.68
2023-03-07T03:13:02.292Z,10.38
2023-03-07T03:15:31.865Z,9.07
2023-03-07T03:18:00.222Z,9.05
2023-03-07T03:20:28.732Z,12.50
2023-03-07T03:22:57.865Z,10.20
2023-03-07T03:25:27.214Z,13.27
2023-03-07T03:27:55.514Z,16.58
2023-03-07T03:30:26.668Z,13.98
2023-03-07T03:32:56.897Z,14.88
2023-03-07T03:35:25.172Z,15.73
2023-03-07T03:37:56.777Z,13.25
2023-03-07T03:40:26.310Z,14.38
2023-03-07T03:42:54.835Z,14.23
2023-03-07T03:45:25.941Z,12.18
2023-03-07T03:47:54.260Z,11.05
2023-03-07T03:50:24.263Z,7.38
2023-03-07T03:52:52.935Z,7.95
2023-03-07T03:55:21.218Z,7.97
2023-03-07T03:57:49.561Z,6.97
2023-03-07T04:00:21.154Z,7.00
2023-03-07T04:02:50.188Z,8.07
2023-03-07T04:05:19.733Z,7.50
2023-03-07T04:07:52.056Z,6.97
2023-03-07T04:10:20.815Z,6.07
2023-03-07T04:12:48.987Z,5.35
2023-03-07T04:15:17.569Z,5.43
2023-03-07T04:17:45.779Z,6.28
2023-03-07T04:20:17.740Z,5.32
2023-03-07T04:22:49.371Z,4.85
2023-03-07T04:25:19.673Z,4.35
2023-03-07T04:27:48.645Z,5.40
2023-03-07T04:30:17.764Z,4.60
2023-03-07T04:32:46.101Z,4.80
2023-03-07T04:35:14.449Z,4.55
2023-03-07T04:37:42.766Z,6.90
2023-03-07T04:40:14.192Z,6.70
2023-03-07T04:42:42.448Z,5.28
2023-03-07T04:45:12.858Z,6.10
2023-03-07T04:47:41.561Z,6.27
2023-03-07T04:50:11.632Z,5.88
2023-03-07T04:52:41.799Z,4.90
2023-03-07T04:55:13.165Z,4.65
2023-03-07T04:57:41.734Z,4.57
2023-03-07T05:00:11.221Z,3.33
2023-03-07T05:02:40.442Z,4.40
2023-03-07T05:05:10.019Z,3.55
2023-03-07T05:07:38.398Z,4.75
2023-03-07T05:10:07.824Z,4.30
2023-03-07T05:12:37.738Z,6.40
2023-03-07T05:15:08.320Z,7.57
2023-03-07T05:17:36.665Z,5.32
2023-03-07T05:20:07.005Z,6.37
2023-03-07T05:22:37.256Z,6.67
2023-03-07T05:25:06.283Z,6.93
2023-03-07T05:27:34.810Z,7.37
2023-03-07T05:30:05.805Z,7.90
2023-03-07T05:32:35.013Z,6.87
2023-03-07T05:35:03.429Z,8.15
2023-03-07T05:37:32.753Z,7.68
2023-03-07T05:40:01.196Z,7.90
2023-03-07T05:42:29.550Z,7.07
2023-03-07T05:44:57.897Z,7.53
2023-03-07T05:47:27.823Z,7.73
2023-03-07T05:49:56.192Z,7.00
2023-03-07T05:52:24.444Z,8.90
2023-03-07T05:54:52.997Z,6.90
2023-03-07T05:57:21.726Z,6.13
2023-03-07T05:59:50.207Z,9.30
2023-03-07T06:02:18.713Z,6.93
2023-03-07T06:04:48.332Z,6.10
2023-03-07T06:07:16.698Z,6.97
2023-03-07T06:09:45.317Z,7.47
2023-03-07T06:12:14.332Z,7.57
2023-03-07T06:14:42.779Z,9.33
2023-03-07T06:17:11.440Z,8.82
2023-03-07T06:19:39.697Z,9.50
2023-03-07T06:22:09.845Z,11.45
2023-03-07T06:24:38.253Z,9.75
2023-03-07T06:27:06.945Z,11.15
2023-03-07T06:29:35.716Z,10.43
2023-03-07T06:32:04.549Z,13.57
2023-03-07T06:34:32.886Z,12.85
2023-03-07T06:37:01.424Z,12.00
2023-03-07T06:39:31.624Z,12.88
2023-03-07T06:42:01.790Z,11.98
2023-03-07T06:44:30.165Z,11.35
2023-03-07T06:46:58.419Z,11.90
2023-03-07T06:49:27.002Z,11.63
2023-03-07T06:51:55.362Z,10.47
2023-03-07T06:54:23.684Z,11.18
2023-03-07T06:56:55.142Z,10.57
2023-03-07T06:59:25.092Z,10.32
2023-03-07T07:01:53.702Z,11.02
2023-03-07T07:04:22.730Z,11.35
2023-03-07T07:06:52.433Z,11.20
2023-03-07T07:09:20.725Z,9.57
2023-03-07T07:11:49.893Z,10.52
2023-03-07T07:14:19.472Z,11.15
2023-03-07T07:16:48.050Z,10.85
2023-03-07T07:19:16.376Z,11.57
2023-03-07T07:21:44.697Z,10.00
2023-03-07T07:24:14.399Z,8.60
2023-03-07T07:26:42.683Z,9.20
2023-03-07T07:29:11.204Z,10.27
2023-03-07T07:31:40.915Z,11.23
2023-03-07T07:34:09.513Z,10.20
2023-03-07T07:36:38.327Z,9.93
2023-03-07T07:39:07.942Z,10.00
2023-03-07T07:41:39.092Z,8.98
2023-03-07T07:44:07.420Z,8.77
2023-03-07T07:46:47.156Z,9.57
2023-03-07T07:49:17.685Z,10.57
2023-03-07T07:51:46.813Z,8.88
2023-03-07T07:54:15.351Z,8.87
2023-03-07T07:56:44.344Z,9.00
2023-03-07T07:59:12.683Z,9.07
2023-03-07T08:01:41.108Z,7.50
2023-03-07T08:04:11.253Z,8.05
2023-03-07T08:06:39.816Z,8.07
2023-03-07T08:09:08.497Z,8.50
2023-03-07T08:11:36.768Z,8.82
2023-03-07T08:14:05.406Z,11.02
2023-03-07T08:16:33.701Z,10.40
2023-03-07T08:19:02.055Z,12.43
2023-03-07T08:21:32.225Z,12.75
2023-03-07T08:24:00.970Z,9.68
2023-03-07T08:26:29.267Z,6.25
2023-03-07T08:28:59.446Z,4.70
2023-03-07T08:31:27.819Z,3.70
2023-03-07T08:33:56.207Z,3.30
2023-03-07T08:36:24.521Z,2.67
2023-03-07T08:38:54.638Z,2.88
2023-03-07T08:41:24.047Z,3.83
2023-03-07T08:43:52.711Z,2.38
2023-03-07T08:46:21.155Z,2.33
2023-03-07T08:48:49.558Z,3.72
2023-03-07T08:51:19.339Z,2.63
2023-03-07T08:53:48.020Z,4.10
2023-03-07T08:56:19.458Z,3.00
2023-03-07T08:58:47.939Z,2.50
2023-03-07T09:01:16.253Z,3.20
2023-03-07T09:03:44.764Z,3.28
2023-03-07T09:06:18.054Z,3.05
2023-03-07T09:08:47.300Z,2.10
2023-03-07T09:11:18.043Z,2.40
2023-03-07T09:13:52.658Z,1.50
2023-03-07T09:16:22.178Z,2.15
2023-03-07T09:18:50.900Z,2.08
2023-03-07T09:21:19.226Z,1.88
2023-03-07T09:23:47.518Z,2.13
2023-03-07T09:26:17.602Z,1.30
2023-03-07T09:28:46.085Z,1.70
2023-03-07T09:31:16.317Z,2.15
2023-03-07T09:33:46.669Z,1.40
2023-03-07T09:36:16.329Z,1.60
2023-03-07T09:38:44.762Z,1.88
2023-03-07T09:41:31.368Z,1.85
2023-03-07T09:44:07.559Z,1.70
2023-03-07T09:47:26.420Z,2.72
2023-03-07T09:49:55.533Z,3.67
2023-03-07T09:52:26.854Z,2.00
2023-03-07T09:55:00.049Z,2.30
2023-03-07T09:57:32.888Z,2.60
2023-03-07T10:00:06.224Z,3.85
2023-03-07T10:02:47.743Z,3.22
2023-03-07T10:05:30.490Z,1.98
2023-03-07T10:07:59.197Z,3.13
2023-03-07T10:10:34.663Z,3.47
2023-03-07T10:13:16.898Z,1.90
2023-03-07T10:15:48.812Z,2.15
2023-03-07T10:18:28.502Z,2.30
2023-03-07T10:21:05.779Z,2.20
2023-03-07T10:23:59.400Z,1.58
2023-03-07T10:26:33.874Z,2.67
2023-03-07T10:29:14.635Z,2.45
2023-03-07T10:31:46.654Z,2.60
2023-03-07T10:34:26.654Z,1.60
2023-03-07T10:37:08.771Z,2.20
2023-03-07T10:39:43.578Z,2.40
2023-03-07T10:42:14.002Z,1.70
2023-03-07T10:44:46.071Z,2.97
2023-03-07T10:47:21.066Z,1.55
2023-03-07T10:49:52.443Z,3.10
2023-03-07T10:52:30.418Z,1.70
2023-03-07T10:55:37.828Z,1.60
2023-03-07T10:58:24.224Z,1.40
2023-03-07T11:01:15.886Z,1.50
2023-03-07T11:03:54.764Z,2.03
2023-03-07T11:06:37.119Z,3.25
2023-03-07T11:09:18.136Z,5.07
2023-03-07T11:11:52.721Z,3.70
2023-03-07T11:14:22.528Z,3.63
2023-03-07T11:16:54.253Z,4.25
2023-03-07T11:19:38.241Z,5.68
2023-03-07T11:22:19.536Z,7.38
2023-03-07T11:24:58.693Z,4.53
2023-03-07T11:27:34.973Z,4.07
2023-03-07T11:30:21.962Z,3.65
2023-03-07T11:33:02.815Z,3.80
2023-03-07T11:35:54.265Z,4.90
2023-03-07T11:38:33.116Z,4.72
2023-03-07T11:41:06.561Z,3.80
2023-03-07T11:43:48.298Z,4.00
2023-03-07T11:46:27.773Z,4.20
2023-03-07T11:49:15.269Z,6.10
2023-03-07T11:51:54.953Z,5.72
2023-03-07T11:54:31.409Z,3.50
2023-03-07T11:57:06.225Z,4.18
2023-03-07T12:00:12.746Z,4.90
2023-03-07T12:03:17.485Z,4.82
2023-03-07T12:06:03.174Z,8.00
2023-03-07T12:08:48.602Z,9.68
2023-03-07T12:11:26.587Z,7.10
2023-03-07T12:14:02.894Z,4.85
2023-03-07T12:16:43.229Z,4.90
2023-03-07T12:19:32.421Z,6.55
2023-03-07T12:22:18.689Z,4.85
2023-03-07T12:24:58.780Z,5.70
2023-03-07T12:27:32.167Z,6.70
2023-03-07T12:30:04.749Z,5.43
2023-03-07T12:32:36.674Z,5.57
2023-03-07T12:35:11.918Z,8.57
2023-03-07T12:37:47.579Z,7.88
2023-03-07T12:40:21.752Z,13.23
2023-03-07T12:42:57.244Z,11.48
2023-03-07T12:45:28.026Z,9.93
2023-03-07T12:48:08.933Z,8.85
2023-03-07T12:50:46.354Z,4.60
2023-03-07T12:53:25.696Z,4.75
2023-03-07T12:55:58.602Z,5.57
2023-03-07T12:58:38.365Z,4.95
2023-03-07T13:01:14.473Z,5.63
2023-03-07T13:03:52.090Z,5.35
2023-03-07T13:06:22.760Z,5.75
2023-03-07T13:08:55.396Z,5.20
2023-03-07T13:11:26.168Z,5.65
2023-03-07T13:13:57.068Z,6.00
2023-03-07T13:16:45.200Z,6.70
2023-03-07T13:19:50.067Z,7.75
2023-03-07T13:22:56.087Z,6.90
2023-03-07T13:25:51.686Z,7.03
2023-03-07T13:28:41.063Z,5.60
2023-03-07T13:31:43.779Z,6.43
2023-03-07T13:34:46.987Z,5.95
2023-03-07T13:37:58.435Z,6.53
2023-03-07T13:40:54.134Z,7.68
2023-03-07T13:43:59.938Z,6.18
2023-03-07T13:47:01.302Z,6.13
2023-03-07T13:49:41.240Z,7.20
2023-03-07T13:52:38.989Z,6.85
2023-03-07T13:55:23.996Z,7.75
2023-03-07T13:57:52.568Z,6.50
2023-03-07T14:00:51.776Z,7.38
2023-03-07T14:03:31.028Z,9.27
2023-03-07T14:06:09.601Z,5.57
2023-03-07T14:08:39.282Z,6.33
2023-03-07T14:11:14.684Z,7.18
2023-03-07T14:13:59.145Z,6.55
2023-03-07T14:16:41.909Z,6.53
2023-03-07T14:19:20.761Z,5.35
2023-03-07T14:21:56.435Z,5.70
2023-03-07T14:24:58.511Z,6.38
2023-03-07T14:27:26.885Z,7.57
2023-03-07T14:29:57.104Z,6.70
2023-03-07T14:32:29.492Z,8.25
2023-03-07T14:34:58.826Z,8.55
2023-03-07T14:37:28.856Z,7.30
2023-03-07T14:40:17.300Z,6.90
2023-03-07T14:42:52.021Z,4.97
2023-03-07T14:45:27.410Z,6.72
2023-03-07T14:48:15.593Z,5.47
2023-03-07T14:50:45.060Z,5.85
2023-03-07T14:53:20.416Z,11.23
2023-03-07T14:55:51.975Z,8.37
2023-03-07T14:58:23.673Z,7.30
2023-03-07T15:00:59.894Z,5.90
2023-03-07T15:03:30.563Z,6.60
2023-03-07T15:06:00.276Z,6.53
2023-03-07T15:08:30.775Z,5.70
2023-03-07T15:11:06.566Z,6.90
2023-03-07T15:13:39.472Z,6.95
2023-03-07T15:16:15.086Z,6.20
2023-03-07T15:18:49.707Z,9.60
2023-03-07T15:21:21.787Z,6.78
2023-03-07T15:23:55.158Z,7.55
2023-03-07T15:26:26.627Z,9.35
2023-03-07T15:29:00.762Z,9.10
2023-03-07T15:31:32.799Z,7.45
2023-03-07T15:34:21.220Z,9.43
2023-03-07T15:36:49.670Z,9.20
2023-03-07T15:39:34.302Z,9.10
2023-03-07T15:42:06.000Z,9.25
2023-03-07T15:44:36.311Z,11.15
2023-03-07T15:47:13.573Z,9.30
2023-03-07T15:49:45.151Z,10.27
2023-03-07T15:52:23.906Z,8.50
2023-03-07T15:54:54.418Z,10.73
2023-03-07T15:57:24.739Z,9.55
2023-03-07T15:59:58.007Z,12.07
2023-03-07T16:02:50.600Z,11.00
2023-03-07T16:05:41.063Z,12.33
2023-03-07T16:08:13.710Z,10.77
2023-03-07T16:10:47.214Z,12.35
2023-03-07T16:13:18.275Z,11.13
2023-03-07T16:15:46.628Z,14.57
2023-03-07T16:18:22.903Z,13.15
2023-03-07T16:20:52.600Z,11.93
2023-03-07T16:23:20.967Z,15.55
2023-03-07T16:25:49.464Z,13.68
2023-03-07T16:28:17.973Z,13.47
2023-03-07T16:30:47.263Z,14.40
2023-03-07T16:33:16.677Z,19.25
2023-03-07T16:35:45.427Z,23.17
2023-03-07T16:38:15.046Z,20.23
2023-03-07T16:40:45.496Z,8.95
2023-03-07T16:43:32.368Z,5.53
2023-03-07T16:46:04.318Z,5.30
2023-03-07T16:48:32.698Z,4.07
2023-03-07T16:51:01.105Z,3.00
2023-03-07T16:53:31.417Z,2.33
2023-03-07T16:56:00.512Z,1.80
2023-03-07T16:58:33.636Z,1.90
2023-03-07T17:01:02.313Z,2.70
2023-03-07T17:03:30.911Z,3.33
2023-03-07T17:06:00.430Z,1.80
2023-03-07T17:08:28.594Z,2.72
2023-03-07T17:10:58.613Z,2.05
2023-03-07T17:13:27.014Z,3.08
2023-03-07T17:15:55.510Z,4.70
2023-03-07T17:18:24.877Z,2.47
2023-03-07T17:20:53.317Z,4.05
2023-03-07T17:23:22.316Z,1.90
2023-03-07T17:25:50.667Z,1.40
2023-03-07T17:28:20.663Z,2.50
2023-03-07T17:30:50.039Z,1.10
2023-03-07T17:33:19.655Z,2.70
2023-03-07T17:35:48.142Z,2.67
2023-03-07T17:38:16.689Z,1.70
2023-03-07T17:40:45.259Z,1.80
2023-03-07T17:43:14.286Z,3.47
2023-03-07T17:45:43.943Z,1.60
2023-03-07T17:48:12.303Z,2.50
2023-03-07T17:50:42.050Z,2.70
2023-03-07T17:53:10.494Z,2.42
2023-03-07T17:55:39.212Z,4.10
2023-03-07T17:58:09.431Z,5.68
2023-03-07T18:00:38.608Z,10.15
2023-03-07T18:03:08.428Z,3.30
2023-03-07T18:05:36.923Z,5.00
2023-03-07T18:08:05.669Z,2.15
2023-03-07T18:10:33.884Z,3.63
2023-03-07T18:13:02.281Z,2.38
2023-03-07T18:15:30.483Z,6.28
2023-03-07T18:17:59.903Z,11.15
2023-03-07T18:20:29.910Z,8.68
2023-03-07T18:22:58.208Z,17.20
2023-03-07T18:25:26.558Z,9.98
2023-03-07T18:27:54.936Z,8.60
2023-03-07T18:30:23.790Z,20.90
2023-03-07T18:32:55.396Z,12.68
2023-03-07T18:35:24.618Z,20.48
2023-03-07T18:37:54.319Z,10.82
2023-03-07T18:40:25.138Z,7.38
2023-03-07T18:42:55.695Z,7.85
2023-03-07T18:45:24.102Z,4.65
2023-03-07T18:47:52.717Z,6.18
2023-03-07T18:50:21.014Z,5.93
2023-03-07T18:52:49.974Z,5.85
2023-03-07T18:55:20.136Z,7.60
2023-03-07T18:57:48.414Z,7.40
2023-03-07T19:00:17.379Z,6.13
2023-03-07T19:02:45.975Z,5.57
2023-03-07T19:05:14.485Z,6.22
2023-03-07T19:07:44.651Z,7.22
2023-03-07T19:10:13.503Z,8.10
2023-03-07T19:12:43.127Z,8.15
2023-03-07T19:15:12.499Z,7.68
2023-03-07T19:17:41.827Z,8.90
2023-03-07T19:20:11.463Z,8.80
2023-03-07T19:22:39.954Z,12.00
2023-03-07T19:25:09.999Z,13.10
2023-03-07T19:27:38.370Z,13.25
2023-03-07T19:30:11.268Z,14.77
2023-03-07T19:32:40.226Z,13.25
2023-03-07T19:35:09.482Z,17.60
2023-03-07T19:37:37.968Z,15.80
2023-03-07T19:40:08.059Z,12.68
2023-03-07T19:42:36.719Z,9.90
2023-03-07T19:45:08.301Z,7.85
2023-03-07T19:47:36.765Z,7.55
2023-03-07T19:50:05.572Z,7.80
2023-03-07T19:52:33.852Z,10.70
2023-03-07T19:55:02.348Z,10.40
2023-03-07T19:57:30.681Z,8.10
2023-03-07T19:59:59.192Z,10.20
2023-03-07T20:02:29.666Z,11.98
2023-03-07T20:04:58.893Z,15.57
2023-03-07T20:07:28.301Z,11.27
2023-03-07T20:09:57.006Z,13.48
2023-03-07T20:12:25.335Z,15.48
2023-03-07T20:14:53.927Z,12.05
2023-03-07T20:17:22.856Z,12.65
2023-03-07T20:19:53.226Z,10.87
2023-03-07T20:22:23.466Z,14.80
2023-03-07T20:24:53.118Z,14.25
2023-03-07T20:27:23.571Z,12.10
2023-03-07T20:29:52.815Z,14.73
2023-03-07T20:32:21.369Z,13.80
2023-03-07T20:34:53.982Z,14.93
2023-03-07T20:37:22.387Z,14.15
2023-03-07T20:39:50.827Z,11.97
2023-03-07T20:42:19.197Z,12.88
2023-03-07T20:44:47.639Z,11.98
2023-03-07T20:47:15.906Z,14.80
2023-03-07T20:49:44.142Z,13.88
2023-03-07T20:52:14.504Z,12.60
2023-03-07T20:54:44.316Z,14.80
2023-03-07T20:57:12.712Z,12.77
2023-03-07T20:59:41.157Z,8.27
2023-03-07T21:02:10.904Z,8.38
2023-03-07T21:04:39.186Z,9.73
2023-03-07T21:07:07.522Z,10.80
2023-03-07T21:09:37.254Z,9.27
2023-03-07T21:12:08.547Z,10.68
2023-03-07T21:14:36.828Z,11.60
2023-03-07T21:17:05.075Z,12.45
2023-03-07T21:19:33.450Z,13.65
2023-03-07T21:22:02.492Z,12.23
2023-03-07T21:24:30.676Z,17.38
2023-03-07T21:27:00.433Z,21.33
2023-03-07T21:29:28.771Z,15.98
2023-03-07T21:31:57.111Z,17.80
2023-03-07T21:34:25.959Z,18.60
2023-03-07T21:36:56.435Z,17.38
2023-03-07T21:39:25.484Z,19.13
2023-03-07T21:41:53.949Z,20.33
2023-03-07T21:44:23.692Z,19.25
2023-03-07T21:46:51.915Z,19.27
2023-03-07T21:49:20.215Z,22.05
2023-03-07T21:51:48.441Z,19.98
2023-03-07T21:54:16.692Z,19.27
2023-03-07T21:56:44.962Z,21.42
2023-03-07T21:59:13.154Z,22.20
2023-03-07T22:01:42.708Z,20.48
2023-03-07T22:04:10.930Z,17.80
2023-03-07T22:06:39.136Z,21.83
2023-03-07T22:09:07.394Z,21.85
2023-03-07T22:11:35.578Z,19.80
2023-03-07T22:14:04.315Z,19.73
2023-03-07T22:16:32.726Z,18.20
2023-03-07T22:19:02.270Z,20.05
2023-03-07T22:21:30.615Z,21.15
2023-03-07T22:24:00.841Z,22.47
2023-03-07T22:26:30.489Z,19.90
2023-03-07T22:28:59.497Z,19.17
2023-03-07T22:31:27.831Z,16.55
2023-03-07T22:33:56.530Z,17.67
2023-03-07T22:36:26.266Z,18.43
2023-03-07T22:38:55.289Z,14.95
2023-03-07T22:41:24.477Z,17.92
2023-03-07T22:43:53.198Z,17.70
2023-03-07T22:46:21.672Z,15.77
2023-03-07T22:48:53.460Z,18.20
2023-03-07T22:51:22.285Z,15.73
2023-03-07T22:53:51.907Z,18.20
2023-03-07T22:56:22.219Z,18.40
2023-03-07T22:58:51.167Z,18.55
2023-03-07T23:01:21.482Z,18.30
2023-03-07T23:03:50.336Z,17.37
2023-03-07T23:06:19.292Z,17.92
2023-03-07T23:08:49.458Z,16.75
2023-03-07T23:11:20.496Z,16.80
2023-03-07T23:13:49.226Z,16.60
2023-03-07T23:16:19.566Z,16.27
2023-03-07T23:18:50.597Z,15.75
2023-03-07T23:21:21.126Z,16.25
2023-03-07T23:23:50.094Z,15.05
2023-03-07T23:26:22.431Z,16.80
2023-03-07T23:28:50.803Z,17.65
2023-03-07T23:31:20.653Z,19.77
2023-03-07T23:33:49.831Z,16.02
2023-03-07T23:36:18.470Z,16.90
2023-03-07T23:38:47.002Z,17.92
2023-03-07T23:41:15.616Z,17.75
2023-03-07T23:43:46.375Z,17.63
2023-03-07T23:46:14.666Z,19.08
2023-03-07T23:48:43.011Z,16.17
2023-03-07T23:51:11.308Z,15.98
2023-03-07T23:53:39.610Z,18.58
2023-03-07T23:56:09.279Z,17.77
2023-03-07T23:58:37.792Z,18.88
